Time;durP1;ratioP1;P1;durP2;ratioP2;P2;SDS_P1;SDS_P2;PMS_P1;PMS_P2;Temp;Humidity;BMP_temperature;BMP_pressure;BME280_temperature;BME280_humidity;BME280_pressure;Samples;Min_cycle;Max_cycle;Signal;HPM_P1;HPM_P2
2023/04/22 00:02:15;;;;;;;2.88;1.55;;;17.30;1.00;;;;;;5031886;28;20049;-34
2023/04/22 00:04:46;;;;;;;3.42;1.67;;;17.30;1.00;;;;;;5031877;28;20068;-34
2023/04/22 00:07:14;;;;;;;3.83;1.60;;;17.30;1.00;;;;;;5032225;28;20040;-34
2023/04/22 00:09:42;;;;;;;3.20;1.67;;;17.30;1.00;;;;;;5032174;28;20038;-34
2023/04/22 00:12:10;;;;;;;4.05;2.08;;;17.30;1.00;;;;;;5035168;28;20429;-34
2023/04/22 00:14:37;;;;;;;3.22;2.10;;;17.30;1.00;;;;;;5051288;28;20102;-34
2023/04/22 00:17:05;;;;;;;2.20;1.20;;;17.30;1.00;;;;;;5051944;28;20048;-33
2023/04/22 00:19:33;;;;;;;2.72;1.60;;;17.30;1.00;;;;;;5051712;28;20130;-33
2023/04/22 00:22:00;;;;;;;3.35;1.70;;;17.30;1.00;;;;;;5051766;28;20037;-34
2023/04/22 00:24:27;;;;;;;2.70;1.92;;;17.30;1.00;;;;;;5051045;28;20041;-33
2023/04/22 00:26:53;;;;;;;2.35;1.17;;;17.30;1.00;;;;;;5051871;28;20073;-33
2023/04/22 00:29:20;;;;;;;3.08;1.60;;;17.30;1.00;;;;;;5052021;28;20083;-34
2023/04/22 00:31:47;;;;;;;2.17;1.15;;;17.30;1.00;;;;;;5051713;28;20071;-34
2023/04/22 00:34:16;;;;;;;2.78;1.55;;;17.30;1.00;;;;;;5033205;28;20053;-34
2023/04/22 00:36:43;;;;;;;3.45;1.40;;;17.30;1.00;;;;;;5051850;28;20047;-34
2023/04/22 00:39:11;;;;;;;2.42;0.95;;;17.30;1.00;;;;;;5017550;28;20049;-34
2023/04/22 00:41:38;;;;;;;3.40;1.35;;;17.30;1.00;;;;;;5051846;28;20049;-34
2023/04/22 00:44:09;;;;;;;2.45;1.42;;;17.20;1.00;;;;;;5032844;28;20517;-34
2023/04/22 00:46:38;;;;;;;3.63;1.80;;;17.30;1.00;;;;;;5033910;28;20041;-34
2023/04/22 00:49:05;;;;;;;3.78;2.42;;;17.20;1.00;;;;;;5033964;28;20132;-34
2023/04/22 00:51:32;;;;;;;5.20;1.23;;;17.20;1.00;;;;;;5051788;28;20045;-34
2023/04/22 00:54:00;;;;;;;1.40;0.90;;;17.20;1.00;;;;;;5032647;28;20051;-34
2023/04/22 00:56:30;;;;;;;2.38;1.33;;;17.20;1.00;;;;;;5042954;28;20048;-34
2023/04/22 00:58:57;;;;;;;1.90;1.20;;;17.20;1.00;;;;;;5038321;28;20187;-33
2023/04/22 01:01:25;;;;;;;1.80;1.00;;;17.20;1.00;;;;;;5051238;28;20033;-34
2023/04/22 01:03:52;;;;;;;6.65;1.17;;;17.20;1.00;;;;;;5050777;28;20481;-33
2023/04/22 01:06:21;;;;;;;3.55;1.42;;;17.20;1.00;;;;;;5033607;28;20052;-33
2023/04/22 01:08:47;;;;;;;4.50;1.83;;;17.20;1.00;;;;;;5051536;28;20484;-33
2023/04/22 01:11:14;;;;;;;3.55;1.52;;;17.20;1.00;;;;;;5051891;28;20507;-33
2023/04/22 01:13:41;;;;;;;1.83;1.00;;;17.20;1.00;;;;;;5050604;28;20037;-34
2023/04/22 01:16:09;;;;;;;2.63;1.52;;;17.20;1.00;;;;;;5033513;28;20052;-33
2023/04/22 01:18:36;;;;;;;2.15;1.27;;;17.20;1.00;;;;;;5033537;28;20041;-34
2023/04/22 01:21:03;;;;;;;2.90;1.50;;;17.20;1.00;;;;;;5051354;28;20049;-34
2023/04/22 01:23:30;;;;;;;1.98;1.33;;;17.20;1.00;;;;;;5032643;28;20049;-34
2023/04/22 01:25:57;;;;;;;2.03;1.15;;;17.20;1.00;;;;;;5051405;28;20051;-34
2023/04/22 01:28:25;;;;;;;3.03;1.45;;;17.20;1.00;;;;;;5033376;28;20139;-33
2023/04/22 01:30:54;;;;;;;2.58;1.65;;;17.20;1.00;;;;;;5051521;28;20432;-34
2023/04/22 01:33:21;;;;;;;5.60;1.65;;;17.20;1.00;;;;;;5050660;28;20477;-34
2023/04/22 01:35:47;;;;;;;2.95;1.33;;;17.10;1.00;;;;;;5051429;28;20064;-34
2023/04/22 01:38:14;;;;;;;1.38;0.90;;;17.20;1.00;;;;;;5033706;28;20052;-33
2023/04/22 01:40:41;;;;;;;1.80;1.23;;;17.20;1.00;;;;;;5051160;28;20037;-34
2023/04/22 01:43:08;;;;;;;2.67;1.25;;;17.20;1.00;;;;;;5033725;28;20132;-34
2023/04/22 01:45:35;;;;;;;2.88;1.20;;;17.10;1.00;;;;;;5054940;28;20076;-34
2023/04/22 01:48:03;;;;;;;1.75;1.08;;;17.10;1.00;;;;;;5036708;28;20573;-34
2023/04/22 01:50:30;;;;;;;1.40;1.00;;;17.10;1.00;;;;;;5036771;28;20091;-34
2023/04/22 01:52:58;;;;;;;3.55;1.35;;;17.20;1.00;;;;;;5053891;28;20515;-34
2023/04/22 01:55:24;;;;;;;3.67;1.23;;;17.10;1.00;;;;;;5036436;28;20069;-34
2023/04/22 01:57:51;;;;;;;1.50;0.88;;;17.10;1.00;;;;;;5036767;28;20049;-34
2023/04/22 02:00:18;;;;;;;2.92;1.48;;;17.10;1.00;;;;;;5036634;28;20072;-34
2023/04/22 02:02:46;;;;;;;1.27;0.93;;;17.10;1.00;;;;;;5035986;28;20447;-34
2023/04/22 02:05:14;;;;;;;2.92;0.93;;;17.10;1.00;;;;;;5036287;28;20053;-33
2023/04/22 02:07:43;;;;;;;2.58;1.27;;;17.10;1.00;;;;;;5036413;28;20048;-34
2023/04/22 02:10:12;;;;;;;1.77;1.15;;;17.10;1.00;;;;;;5054309;28;20124;-34
2023/04/22 02:12:39;;;;;;;1.27;1.10;;;17.10;1.00;;;;;;5035536;28;20508;-34
2023/04/22 02:15:06;;;;;;;3.65;1.23;;;17.10;1.00;;;;;;5054152;28;20048;-34
2023/04/22 02:17:34;;;;;;;1.67;1.08;;;17.10;1.00;;;;;;5054220;28;20055;-34
2023/04/22 02:20:03;;;;;;;1.80;1.17;;;17.10;1.00;;;;;;5036145;28;20053;-34
2023/04/22 02:22:31;;;;;;;4.00;1.23;;;17.10;1.00;;;;;;5053390;28;20492;-34
2023/04/22 02:24:58;;;;;;;1.58;0.90;;;17.00;1.00;;;;;;5035666;28;20492;-34
2023/04/22 02:27:24;;;;;;;1.75;0.93;;;17.00;1.00;;;;;;5053880;28;20037;-34
2023/04/22 02:29:51;;;;;;;3.03;0.88;;;17.00;1.00;;;;;;5053892;28;20037;-34
2023/04/22 02:32:18;;;;;;;1.75;1.25;;;17.10;1.00;;;;;;5053479;28;20037;-34
2023/04/22 02:34:46;;;;;;;2.92;1.40;;;17.00;1.00;;;;;;5035721;28;20543;-34
2023/04/22 02:37:13;;;;;;;2.17;1.17;;;17.00;1.00;;;;;;5035923;28;20102;-34
2023/04/22 02:39:40;;;;;;;1.80;1.23;;;17.00;1.00;;;;;;5053571;28;20493;-34
2023/04/22 02:42:07;;;;;;;4.75;2.08;;;17.00;1.00;;;;;;5035710;28;20497;-34
2023/04/22 02:44:34;;;;;;;2.67;1.20;;;17.00;1.00;;;;;;5035121;28;20053;-34
2023/04/22 02:47:02;;;;;;;3.20;1.33;;;17.00;1.00;;;;;;5035476;28;20049;-34
2023/04/22 02:49:29;;;;;;;2.70;1.45;;;17.00;1.00;;;;;;5053437;28;20041;-34
2023/04/22 02:51:56;;;;;;;1.40;0.90;;;17.00;1.00;;;;;;5053448;28;20503;-34
2023/04/22 02:54:23;;;;;;;3.50;1.30;;;17.00;1.00;;;;;;5033630;28;20068;-34
2023/04/22 02:56:50;;;;;;;2.30;1.45;;;17.00;1.00;;;;;;5053501;28;20049;-34
2023/04/22 02:59:16;;;;;;;2.53;1.38;;;17.00;1.00;;;;;;5053504;28;20385;-34
2023/04/22 03:01:43;;;;;;;2.08;1.30;;;16.90;1.00;;;;;;5035732;28;20072;-34
2023/04/22 03:04:20;;;;;;;2.35;1.30;;;17.00;1.00;;;;;;5034865;28;20083;-34
2023/04/22 03:06:48;;;;;;;1.92;1.10;;;17.00;1.00;;;;;;5053165;28;20385;-34
2023/04/22 03:09:16;;;;;;;1.75;1.38;;;17.00;1.00;;;;;;5035263;28;20492;-34
2023/04/22 03:11:43;;;;;;;1.60;1.08;;;16.90;1.00;;;;;;5018987;28;20095;-34
2023/04/22 03:14:10;;;;;;;1.40;0.88;;;17.00;1.00;;;;;;5034266;28;20068;-34
2023/04/22 03:16:37;;;;;;;2.95;1.45;;;17.00;1.00;;;;;;5035057;28;20053;-34
2023/04/22 03:19:05;;;;;;;3.13;1.15;;;16.90;1.00;;;;;;5035063;28;20107;-34
2023/04/22 03:21:31;;;;;;;3.20;1.23;;;16.90;1.00;;;;;;5035140;28;20053;-34
2023/04/22 03:23:59;;;;;;;2.78;1.25;;;16.90;1.00;;;;;;5034109;28;20279;-34
2023/04/22 03:26:30;;;;;;;2.42;1.30;;;16.90;1.00;;;;;;5034953;28;20056;-34
2023/04/22 03:28:58;;;;;;;3.17;1.35;;;16.90;1.00;;;;;;5034851;28;20041;-34
2023/04/22 03:31:25;;;;;;;3.60;1.58;;;16.90;1.00;;;;;;5034697;28;20041;-34
2023/04/22 03:33:51;;;;;;;4.28;1.00;;;16.90;1.00;;;;;;5052139;28;20120;-34
2023/04/22 03:36:26;;;;;;;;;;;16.90;1.00;;;;;;5053199;28;20037;-34
2023/04/22 03:38:53;;;;;;;2.35;1.20;;;16.90;1.00;;;;;;5051386;28;19921;-34
2023/04/22 03:41:25;;;;;;;1.80;1.20;;;16.90;1.00;;;;;;5034666;28;20098;-34
2023/04/22 03:43:52;;;;;;;1.27;1.13;;;16.90;1.00;;;;;;5051643;28;20412;-34
2023/04/22 03:46:19;;;;;;;2.92;1.08;;;16.90;1.00;;;;;;5034657;28;20053;-34
2023/04/22 03:48:55;;;;;;;1.85;1.20;;;16.90;1.00;;;;;;5034642;28;20041;-34
2023/04/22 03:51:26;;;;;;;2.80;1.58;;;16.90;1.00;;;;;;5034757;28;20048;-34
2023/04/22 03:53:53;;;;;;;1.48;1.17;;;16.80;1.00;;;;;;5033679;28;20090;-34
2023/04/22 03:56:23;;;;;;;2.30;1.10;;;16.80;1.00;;;;;;5052209;28;20045;-34
2023/04/22 03:58:53;;;;;;;4.15;1.40;;;16.90;1.00;;;;;;5034591;28;20052;-34
2023/04/22 04:01:22;;;;;;;1.83;1.02;;;16.80;1.00;;;;;;5034094;28;20048;-34
2023/04/22 04:03:51;;;;;;;2.38;1.45;;;16.80;1.00;;;;;;5032856;28;20581;-34
2023/04/22 04:06:20;;;;;;;3.40;1.55;;;16.80;1.00;;;;;;5033285;28;20531;-34
2023/04/22 04:08:47;;;;;;;2.30;1.27;;;16.80;1.00;;;;;;5051089;28;20073;-34
2023/04/22 04:11:14;;;;;;;1.90;1.05;;;16.80;1.00;;;;;;5034240;28;20037;-34
2023/04/22 04:13:41;;;;;;;4.55;1.33;;;16.80;1.00;;;;;;5033307;28;20045;-34
2023/04/22 04:16:30;;;;;;;2.20;1.02;;;16.80;1.00;;;;;;5050838;28;20132;-34
2023/04/22 04:19:05;;;;;;;1.70;1.10;;;16.80;1.00;;;;;;5034683;28;20045;-34
2023/04/22 04:21:35;;;;;;;3.05;1.15;;;16.80;1.00;;;;;;5040300;28;20040;-34
2023/04/22 04:24:02;;;;;;;1.90;1.08;;;16.80;1.00;;;;;;5026741;28;20042;-34
2023/04/22 04:26:33;;;;;;;1.63;0.95;;;16.80;1.00;;;;;;5015851;28;20487;-34
2023/04/22 04:29:08;;;;;;;1.88;0.95;;;16.80;1.00;;;;;;5015088;28;20135;-34
2023/04/22 04:31:38;;;;;;;2.15;1.60;;;16.80;1.00;;;;;;5010619;28;20042;-34
2023/04/22 04:34:06;;;;;;;2.97;1.60;;;16.80;1.00;;;;;;5027123;28;20055;-34
2023/04/22 04:36:35;;;;;;;1.85;1.30;;;16.80;1.00;;;;;;5014527;28;20413;-34
2023/04/22 04:39:16;;;;;;;2.08;1.23;;;16.80;1.00;;;;;;5030563;28;20049;-34
2023/04/22 04:41:43;;;;;;;2.40;1.42;;;16.70;1.00;;;;;;5030514;28;20136;-34
2023/04/22 04:44:11;;;;;;;1.30;0.98;;;16.70;1.00;;;;;;5013185;28;20068;-34
2023/04/22 04:46:39;;;;;;;1.83;0.85;;;16.70;1.00;;;;;;5030473;28;20080;-34
2023/04/22 04:49:11;;;;;;;3.13;1.33;;;16.70;1.00;;;;;;5030372;28;20069;-34
2023/04/22 04:51:54;;;;;;;1.85;1.10;;;16.70;1.00;;;;;;5030438;28;20133;-34
2023/04/22 04:54:21;;;;;;;1.70;1.08;;;16.70;1.00;;;;;;5029776;28;20041;-34
2023/04/22 04:56:47;;;;;;;1.70;1.08;;;16.70;1.00;;;;;;5030249;28;20052;-34
2023/04/22 04:59:14;;;;;;;1.40;0.90;;;16.70;1.00;;;;;;5030371;28;20144;-34
2023/04/22 05:01:41;;;;;;;1.20;1.00;;;16.70;1.00;;;;;;5030525;28;20045;-34
2023/04/22 05:04:11;;;;;;;1.77;1.23;;;16.70;1.00;;;;;;5029546;28;20080;-34
2023/04/22 05:06:40;;;;;;;3.20;1.30;;;16.70;1.00;;;;;;5030483;28;20096;-34
2023/04/22 05:09:07;;;;;;;1.92;1.20;;;16.70;1.00;;;;;;5031431;28;20386;-34
2023/04/22 05:11:35;;;;;;;2.28;0.85;;;16.70;1.00;;;;;;5030293;28;20076;-34
2023/04/22 05:14:09;;;;;;;1.67;0.90;;;16.70;1.00;;;;;;5029536;28;20497;-34
2023/04/22 05:16:40;;;;;;;1.30;0.70;;;16.70;1.00;;;;;;5030351;28;20046;-33
2023/04/22 05:19:07;;;;;;;1.63;0.90;;;16.70;1.00;;;;;;5033053;28;20041;-33
2023/04/22 05:21:34;;;;;;;2.15;1.45;;;16.70;1.00;;;;;;5034180;28;20052;-33
2023/04/22 05:24:02;;;;;;;2.00;0.90;;;16.70;1.00;;;;;;5016972;28;20052;-33
2023/04/22 05:26:29;;;;;;;2.33;1.23;;;16.70;1.00;;;;;;5033920;28;20048;-34
2023/04/22 05:28:56;;;;;;;2.22;1.30;;;16.70;1.00;;;;;;5033642;28;20420;-34
2023/04/22 05:31:23;;;;;;;2.15;1.08;;;16.70;1.00;;;;;;5035208;28;20045;-34
2023/04/22 05:33:50;;;;;;;2.13;1.00;;;16.70;1.00;;;;;;5032931;28;20497;-34
2023/04/22 05:36:17;;;;;;;5.13;1.25;;;16.70;1.00;;;;;;5033572;28;20497;-34
2023/04/22 05:38:46;;;;;;;3.33;1.17;;;16.60;1.00;;;;;;5033563;28;20057;-34
2023/04/22 05:41:14;;;;;;;2.47;1.30;;;16.70;1.00;;;;;;5033670;28;20099;-33
2023/04/22 05:43:41;;;;;;;5.85;1.55;;;16.70;1.00;;;;;;5032640;28;20072;-34
2023/04/22 05:46:14;;;;;;;5.60;1.27;;;16.70;1.00;;;;;;5018067;28;20057;-34
2023/04/22 05:48:42;;;;;;;4.53;2.35;;;16.70;1.00;;;;;;5033109;28;20513;-34
2023/04/22 05:51:24;;;;;;;6.97;3.65;;;16.70;1.00;;;;;;5034217;28;20043;-34
2023/04/22 05:53:50;;;;;;;9.45;4.63;;;16.70;1.00;;;;;;5025586;28;20133;-34
2023/04/22 05:56:17;;;;;;;5.45;3.45;;;16.70;1.00;;;;;;5037233;28;20488;-34
2023/04/22 05:58:44;;;;;;;8.40;3.95;;;16.70;1.00;;;;;;5045344;28;20131;-34
2023/04/22 06:01:16;;;;;;;9.00;4.32;;;16.70;1.00;;;;;;5055255;28;20037;-34
2023/04/22 06:03:53;;;;;;;4.97;4.15;;;16.70;1.00;;;;;;5032726;28;20050;-35
2023/04/22 06:06:22;;;;;;;11.85;5.40;;;16.70;1.00;;;;;;5030909;28;20471;-35
2023/04/22 06:08:48;;;;;;;5.00;4.25;;;16.70;1.00;;;;;;5034183;28;20124;-34
2023/04/22 06:11:15;;;;;;;7.57;5.50;;;16.70;1.00;;;;;;5032880;28;20076;-35
2023/04/22 06:13:42;;;;;;;8.10;5.25;;;16.80;1.00;;;;;;5051399;28;20045;-34
2023/04/22 06:16:09;;;;;;;7.78;5.80;;;16.80;1.00;;;;;;5036983;28;20408;-34
2023/04/22 06:18:36;;;;;;;7.20;4.72;;;16.80;1.00;;;;;;5036087;28;20045;-34
2023/04/22 06:21:09;;;;;;;5.05;3.85;;;16.80;1.00;;;;;;5029867;28;20132;-34
2023/04/22 06:23:36;;;;;;;6.82;4.07;;;16.80;1.00;;;;;;5033559;28;20512;-34
2023/04/22 06:26:03;;;;;;;5.45;3.45;;;16.80;1.00;;;;;;5036077;28;20066;-34
2023/04/22 06:28:34;;;;;;;5.88;3.17;;;16.80;1.00;;;;;;5035630;28;20051;-34
2023/04/22 06:31:05;;;;;;;9.10;3.45;;;16.80;1.00;;;;;;5036030;28;20052;-34
2023/04/22 06:33:32;;;;;;;4.60;3.17;;;16.80;1.00;;;;;;5035020;28;20045;-34
2023/04/22 06:36:00;;;;;;;6.03;2.90;;;16.80;1.00;;;;;;5035941;28;20044;-34
2023/04/22 06:38:30;;;;;;;4.25;3.10;;;16.80;1.00;;;;;;5035660;28;20059;-34
2023/04/22 06:41:35;;;;;;;4.82;2.60;;;16.80;1.00;;;;;;4972729;28;20406;-34
2023/04/22 06:44:10;;;;;;;3.72;2.72;;;16.80;1.00;;;;;;4971718;28;20101;-34
2023/04/22 06:47:11;;;;;;;3.13;2.38;;;16.80;1.00;;;;;;5017047;28;20630;-33
2023/04/22 06:49:45;;;;;;;14.10;5.63;;;16.70;1.00;;;;;;5035572;28;20041;-34
2023/04/22 06:52:32;;;;;;;11.75;5.18;;;16.80;1.00;;;;;;5035157;28;20048;-33
2023/04/22 06:54:59;;;;;;;4.43;3.40;;;16.80;1.00;;;;;;5028175;28;20044;-33
2023/04/22 06:57:26;;;;;;;6.72;4.55;;;16.70;1.00;;;;;;5031452;28;20128;-33
2023/04/22 06:59:53;;;;;;;7.80;3.92;;;16.80;1.00;;;;;;5035454;28;20057;-33
2023/04/22 07:02:21;;;;;;;5.75;3.25;;;16.70;1.00;;;;;;5034695;28;20049;-34
2023/04/22 07:04:48;;;;;;;4.70;3.60;;;16.80;1.00;;;;;;5034990;28;20076;-33
2023/04/22 07:07:15;;;;;;;9.52;3.40;;;16.70;1.00;;;;;;5035040;28;20144;-33
2023/04/22 07:09:42;;;;;;;9.32;4.45;;;16.80;1.00;;;;;;5035371;28;20102;-34
2023/04/22 07:12:09;;;;;;;3.97;3.22;;;16.80;1.00;;;;;;5052637;28;20045;-34
2023/04/22 07:14:36;;;;;;;5.47;3.35;;;16.80;1.00;;;;;;5052440;28;20083;-33
2023/04/22 07:17:03;;;;;;;4.38;2.97;;;16.70;1.00;;;;;;5052999;28;20099;-34
2023/04/22 07:19:30;;;;;;;6.32;2.60;;;16.80;1.00;;;;;;5052838;28;20095;-33
2023/04/22 07:21:59;;;;;;;6.10;2.10;;;16.80;1.00;;;;;;5052703;28;20056;-34
2023/04/22 07:24:26;;;;;;;5.70;2.47;;;16.80;1.00;;;;;;5051771;28;20053;-34
2023/04/22 07:26:52;;;;;;;5.90;2.20;;;16.70;1.00;;;;;;5052746;28;20128;-34
2023/04/22 07:29:20;;;;;;;5.22;2.70;;;16.80;1.00;;;;;;5052690;28;20076;-34
2023/04/22 07:31:46;;;;;;;3.45;2.33;;;16.70;1.00;;;;;;5052636;28;20041;-34
2023/04/22 07:34:13;;;;;;;3.85;2.38;;;16.80;1.00;;;;;;5051893;28;20528;-34
2023/04/22 07:36:40;;;;;;;3.72;2.22;;;16.70;1.00;;;;;;5052635;28;20091;-33
2023/04/22 07:39:08;;;;;;;2.95;1.73;;;16.80;1.00;;;;;;5052304;28;20048;-33
2023/04/22 07:41:35;;;;;;;4.57;2.08;;;16.70;1.00;;;;;;5034031;28;20055;-34
2023/04/22 07:44:02;;;;;;;3.67;1.88;;;16.80;1.00;;;;;;5051692;28;20091;-34
2023/04/22 07:46:29;;;;;;;4.75;2.00;;;16.80;1.00;;;;;;5052470;28;20400;-34
2023/04/22 07:48:55;;;;;;;2.95;1.90;;;16.70;1.00;;;;;;5052294;28;20077;-33
2023/04/22 07:51:22;;;;;;;2.85;1.88;;;16.80;1.00;;;;;;5051718;28;20045;-33
2023/04/22 07:53:49;;;;;;;3.67;1.75;;;16.80;1.00;;;;;;5051093;28;20045;-34
2023/04/22 07:56:16;;;;;;;2.45;1.88;;;16.80;1.00;;;;;;5052260;28;20037;-33
2023/04/22 07:58:42;;;;;;;2.85;1.70;;;16.80;1.00;;;;;;5052044;28;20501;-34
2023/04/22 08:01:09;;;;;;;3.55;2.03;;;16.80;1.00;;;;;;5034776;28;20045;-34
2023/04/22 08:03:36;;;;;;;4.28;1.50;;;16.80;1.00;;;;;;5051285;28;20091;-33
2023/04/22 08:06:03;;;;;;;2.55;1.60;;;16.80;1.00;;;;;;5051894;28;20049;-33
2023/04/22 08:08:30;;;;;;;2.38;1.63;;;16.80;1.00;;;;;;5051854;28;20043;-33
2023/04/22 08:10:57;;;;;;;2.47;1.92;;;16.80;1.00;;;;;;5052192;28;20041;-33
2023/04/22 08:13:24;;;;;;;2.65;1.42;;;16.80;1.00;;;;;;5051161;28;20408;-33
2023/04/22 08:15:51;;;;;;;3.70;1.90;;;16.80;1.00;;;;;;5052088;28;20127;-33
2023/04/22 08:18:18;;;;;;;4.28;2.95;;;16.80;1.00;;;;;;5051852;28;20041;-34
2023/04/22 08:20:46;;;;;;;2.47;1.40;;;16.80;1.00;;;;;;5051752;28;20052;-34
2023/04/22 08:23:13;;;;;;;1.95;1.17;;;16.80;1.00;;;;;;5067045;28;20083;-34
2023/04/22 08:25:40;;;;;;;5.32;3.42;;;16.80;1.00;;;;;;5071975;28;20044;-33
2023/04/22 08:28:07;;;;;;;6.43;4.57;;;16.80;1.00;;;;;;5071815;28;20068;-34
2023/04/22 08:30:34;;;;;;;9.43;5.72;;;16.80;1.00;;;;;;5072073;28;20040;-34
2023/04/22 08:33:10;;;;;;;7.93;5.07;;;16.80;1.00;;;;;;5070768;28;20045;-34
2023/04/22 08:35:37;;;;;;;6.43;4.78;;;16.90;1.00;;;;;;5071878;28;20076;-33
2023/04/22 08:38:04;;;;;;;7.28;5.15;;;16.90;1.00;;;;;;5071932;28;20440;-33
2023/04/22 08:40:31;;;;;;;7.57;5.45;;;16.90;1.00;;;;;;5071833;28;20072;-33
2023/04/22 08:42:57;;;;;;;8.30;5.53;;;16.90;1.00;;;;;;5070765;28;20401;-33
2023/04/22 08:45:24;;;;;;;7.13;5.15;;;16.90;1.00;;;;;;5071727;28;20056;-33
2023/04/22 08:47:52;;;;;;;10.13;5.90;;;16.90;1.00;;;;;;5071516;28;20045;-33
2023/04/22 08:50:23;;;;;;;8.77;4.97;;;16.90;1.00;;;;;;5071593;28;20053;-33
2023/04/22 08:52:49;;;;;;;9.15;5.10;;;16.90;1.00;;;;;;5073527;28;20036;-34
2023/04/22 08:55:17;;;;;;;11.27;6.10;;;17.00;1.00;;;;;;5075874;28;20041;-33
2023/04/22 08:57:45;;;;;;;9.73;5.10;;;16.90;1.00;;;;;;5075673;28;20038;-33
2023/04/22 09:00:13;;;;;;;7.25;5.13;;;17.00;1.00;;;;;;5075536;28;20067;-33
2023/04/22 09:02:45;;;;;;;7.22;4.70;;;17.00;1.00;;;;;;5074291;28;20045;-33
2023/04/22 09:05:13;;;;;;;7.22;4.32;;;17.00;1.00;;;;;;5075673;28;20044;-33
2023/04/22 09:07:40;;;;;;;6.03;3.80;;;17.00;1.00;;;;;;5075418;28;20098;-33
2023/04/22 09:10:08;;;;;;;5.60;3.50;;;17.00;1.00;;;;;;5075408;28;20032;-33
2023/04/22 09:12:36;;;;;;;6.68;3.50;;;17.00;1.00;;;;;;5075082;28;20044;-33
2023/04/22 09:15:05;;;;;;;5.90;3.10;;;17.00;1.00;;;;;;5075237;28;20048;-33
2023/04/22 09:17:37;;;;;;;4.47;3.00;;;17.10;1.00;;;;;;5075403;28;20068;-33
2023/04/22 09:20:06;;;;;;;4.95;3.15;;;17.10;1.00;;;;;;5075272;28;20559;-33
2023/04/22 09:22:42;;;;;;;4.25;3.28;;;17.10;1.00;;;;;;5082762;22;20051;-35
2023/04/22 09:25:18;;;;;;;5.22;3.33;;;17.10;1.00;;;;;;5035246;28;20037;-34
2023/04/22 09:27:52;;;;;;;8.07;3.95;;;17.10;1.00;;;;;;5035148;28;20041;-35
2023/04/22 09:30:32;;;;;;;11.15;4.78;;;17.10;1.00;;;;;;5035068;28;20137;-35
2023/04/22 09:33:01;;;;;;;5.18;3.00;;;17.10;1.00;;;;;;5033894;28;20134;-35
2023/04/22 09:35:33;;;;;;;6.50;4.22;;;17.20;1.00;;;;;;5034939;28;20088;-35
2023/04/22 09:38:03;;;;;;;9.20;3.58;;;17.20;1.00;;;;;;5034760;28;20048;-35
2023/04/22 09:40:31;;;;;;;5.05;3.63;;;17.20;1.00;;;;;;5034881;28;20128;-35
2023/04/22 09:43:01;;;;;;;5.60;3.42;;;17.20;1.00;;;;;;5033907;28;20129;-35
2023/04/22 09:45:38;;;;;;;4.38;3.25;;;17.20;1.00;;;;;;5017013;28;20053;-35
2023/04/22 09:48:10;;;;;;;5.82;3.47;;;17.20;1.00;;;;;;5034574;28;20045;-35
2023/04/22 09:50:38;;;;;;;6.65;4.18;;;17.30;1.00;;;;;;5034728;28;20046;-35
2023/04/22 09:53:07;;;;;;;5.90;3.80;;;17.30;1.00;;;;;;5034265;28;20397;-35
2023/04/22 09:55:37;;;;;;;11.85;4.88;;;17.30;1.00;;;;;;5034610;28;20045;-36
2023/04/22 09:58:07;;;;;;;6.70;3.55;;;17.30;1.00;;;;;;5034673;28;20107;-35
2023/04/22 10:00:41;;;;;;;6.70;3.88;;;17.30;1.00;;;;;;5034614;28;20124;-35
2023/04/22 10:03:08;;;;;;;6.50;4.47;;;17.30;1.00;;;;;;5033179;28;20111;-35
2023/04/22 10:05:36;;;;;;;6.70;4.55;;;17.30;1.00;;;;;;5034358;28;20103;-35
2023/04/22 10:08:09;;;;;;;7.25;4.32;;;17.30;1.00;;;;;;5034345;28;20574;-36
2023/04/22 10:10:37;;;;;;;5.63;4.05;;;17.30;1.00;;;;;;5034294;28;20132;-35
2023/04/22 10:13:05;;;;;;;8.25;3.97;;;17.30;1.00;;;;;;5033390;28;20046;-35
2023/04/22 10:15:44;;;;;;;6.47;4.20;;;17.40;1.00;;;;;;5034419;28;20076;-35
2023/04/22 10:18:15;;;;;;;8.70;4.55;;;17.40;1.00;;;;;;5034157;28;20485;-36
2023/04/22 10:20:44;;;;;;;7.72;4.50;;;17.40;1.00;;;;;;5034390;28;20485;-36
2023/04/22 10:23:19;;;;;;;7.28;4.22;;;17.40;1.00;;;;;;5033055;28;20045;-35
2023/04/22 10:25:48;;;;;;;6.97;4.65;;;17.40;1.00;;;;;;5034290;28;20045;-36
2023/04/22 10:28:15;;;;;;;9.70;5.72;;;17.40;1.00;;;;;;5033976;28;20100;-36
2023/04/22 10:30:42;;;;;;;7.32;5.07;;;17.40;1.00;;;;;;5034126;28;20049;-36
2023/04/22 10:33:22;;;;;;;9.18;7.00;;;17.40;1.00;;;;;;5032876;28;20048;-36
2023/04/22 10:36:09;;;;;;;10.65;5.82;;;17.40;1.00;;;;;;5033802;28;20520;-36
2023/04/22 10:38:40;;;;;;;13.05;8.50;;;17.40;1.00;;;;;;5033850;28;20090;-36
2023/04/22 10:41:14;;;;;;;10.82;6.82;;;17.40;1.00;;;;;;5033827;28;20067;-36
2023/04/22 10:43:41;;;;;;;8.23;6.13;;;17.40;1.00;;;;;;5033191;28;20046;-35
2023/04/22 10:46:36;;;;;;;13.05;8.07;;;17.40;1.00;;;;;;5033808;28;20045;-36
2023/04/22 10:49:11;;;;;;;11.25;7.43;;;17.40;1.00;;;;;;5033497;28;20064;-35
2023/04/22 10:51:41;;;;;;;10.57;7.18;;;17.40;1.00;;;;;;5033648;28;20092;-36
2023/04/22 10:57:09;;;;;;;17.30;7.82;;;17.40;1.00;;;;;;5033713;28;20111;-36
2023/04/22 10:59:47;;;;;;;12.73;7.18;;;17.30;1.00;;;;;;5015648;28;20050;-35
2023/04/22 11:02:17;;;;;;;13.77;7.20;;;17.30;1.00;;;;;;5032850;28;20052;-36
2023/04/22 11:04:44;;;;;;;9.13;5.72;;;17.30;1.00;;;;;;5032878;28;20512;-35
2023/04/22 11:07:15;;;;;;;8.55;5.90;;;17.30;1.00;;;;;;5032737;28;20492;-35
2023/04/22 11:09:48;;;;;;;8.40;5.20;;;17.30;1.00;;;;;;5032763;28;20065;-36
2023/04/22 11:12:37;;;;;;;6.97;4.13;;;17.30;1.00;;;;;;5032098;28;20045;-36
2023/04/22 11:15:05;;;;;;;9.10;4.88;;;17.30;1.00;;;;;;5031945;28;20050;-36
2023/04/22 11:17:32;;;;;;;5.95;4.28;;;17.30;1.00;;;;;;5032181;28;20046;-36
2023/04/22 11:19:59;;;;;;;10.40;5.93;;;17.30;1.00;;;;;;5032422;28;20067;-36
2023/04/22 11:22:26;;;;;;;12.35;8.02;;;17.30;1.00;;;;;;5032008;28;20136;-36
2023/04/22 11:24:54;;;;;;;12.60;8.13;;;17.30;1.00;;;;;;5032129;28;20128;-36
2023/04/22 11:27:25;;;;;;;14.52;9.18;;;17.30;1.00;;;;;;5032246;28;20048;-35
2023/04/22 11:30:13;;;;;;;14.52;9.27;;;17.30;1.00;;;;;;5032501;28;20433;-35
2023/04/22 11:32:46;;;;;;;15.40;8.95;;;17.30;1.00;;;;;;5031514;28;20092;-36
2023/04/22 11:35:23;;;;;;;15.32;10.00;;;17.30;1.00;;;;;;5032259;28;20049;-36
2023/04/22 11:38:00;;;;;;;15.73;9.68;;;17.30;1.00;;;;;;5068446;28;20376;-35
2023/04/22 11:40:45;;;;;;;16.52;10.10;;;17.30;1.00;;;;;;5068879;28;20052;-35
2023/04/22 11:43:13;;;;;;;15.30;9.70;;;17.20;1.00;;;;;;5066531;28;20045;-35
2023/04/22 11:45:41;;;;;;;18.20;11.27;;;17.20;1.00;;;;;;5068677;28;20047;-35
2023/04/22 11:48:09;;;;;;;16.35;11.85;;;17.20;1.00;;;;;;5068479;28;20110;-35
2023/04/22 11:50:38;;;;;;;18.50;11.43;;;17.20;1.00;;;;;;5068656;28;20480;-35
2023/04/22 11:53:13;;;;;;;20.80;11.77;;;17.10;1.00;;;;;;5067396;28;20041;-35
2023/04/22 11:55:40;;;;;;;16.75;11.02;;;17.20;1.00;;;;;;5068455;28;20408;-35
2023/04/22 11:58:34;;;;;;;20.48;13.30;;;17.10;1.00;;;;;;5066920;28;20408;-35
2023/04/22 12:01:01;;;;;;;18.55;11.85;;;17.10;1.00;;;;;;5067276;28;20076;-35
2023/04/22 12:03:29;;;;;;;16.70;11.05;;;17.10;1.00;;;;;;5067559;28;20083;-35
2023/04/22 12:05:59;;;;;;;20.05;12.05;;;17.10;1.00;;;;;;5068677;28;20465;-35
2023/04/22 12:08:40;;;;;;;20.17;11.27;;;17.10;1.00;;;;;;5068517;28;20052;-35
2023/04/22 12:11:09;;;;;;;20.33;11.93;;;17.10;1.00;;;;;;5068626;28;20041;-35
2023/04/22 12:13:36;;;;;;;17.15;10.55;;;17.10;1.00;;;;;;5067741;28;20123;-35
2023/04/22 12:16:05;;;;;;;19.17;11.13;;;17.00;1.00;;;;;;5068566;28;20463;-35
2023/04/22 12:18:56;;;;;;;17.52;10.73;;;17.00;1.00;;;;;;5068400;28;20048;-35
2023/04/22 12:21:27;;;;;;;20.27;10.82;;;17.00;1.00;;;;;;5068336;28;20136;-35
2023/04/22 12:23:57;;;;;;;17.48;11.23;;;17.00;1.00;;;;;;5067459;28;20079;-35
2023/04/22 12:26:28;;;;;;;19.45;11.65;;;16.90;1.00;;;;;;5068313;28;20086;-35
2023/04/22 12:28:57;;;;;;;16.70;9.85;;;16.90;1.00;;;;;;5068338;28;20131;-35
2023/04/22 12:31:25;;;;;;;16.58;10.18;;;16.90;1.00;;;;;;5068358;28;20069;-35
2023/04/22 12:33:52;;;;;;;18.30;10.38;;;16.90;1.00;;;;;;5067126;28;20450;-35
2023/04/22 12:36:19;;;;;;;14.85;9.38;;;16.90;1.00;;;;;;5067616;28;20044;-35
2023/04/22 12:38:47;;;;;;;18.17;11.07;;;16.90;1.00;;;;;;5066637;28;20456;-35
2023/04/22 12:41:14;;;;;;;18.08;10.77;;;16.90;1.00;;;;;;5067768;28;20044;-35
2023/04/22 12:43:41;;;;;;;16.40;10.25;;;16.90;1.00;;;;;;5066839;28;20114;-35
2023/04/22 12:46:08;;;;;;;15.30;9.55;;;16.90;1.00;;;;;;5067700;28;20051;-35
2023/04/22 12:48:36;;;;;;;14.07;8.20;;;16.80;1.00;;;;;;5058324;28;20152;-35
2023/04/22 12:51:05;;;;;;;12.82;8.93;;;16.80;1.00;;;;;;5054644;28;20039;-35
2023/04/22 12:53:32;;;;;;;13.85;8.05;;;16.80;1.00;;;;;;5053688;28;20128;-35
2023/04/22 12:55:58;;;;;;;10.98;7.10;;;16.80;1.00;;;;;;5054388;28;20049;-35
2023/04/22 12:58:25;;;;;;;11.93;6.78;;;16.80;1.00;;;;;;5054439;28;20075;-35
2023/04/22 13:00:52;;;;;;;11.75;6.93;;;16.80;1.00;;;;;;5054480;28;20056;-35
2023/04/22 13:03:19;;;;;;;10.75;7.22;;;16.80;1.00;;;;;;5053278;28;20053;-35
2023/04/22 13:05:46;;;;;;;12.63;6.57;;;16.80;1.00;;;;;;5054289;28;20124;-35
2023/04/22 13:08:13;;;;;;;9.93;5.72;;;16.80;1.00;;;;;;5054086;28;20068;-35
2023/04/22 13:10:40;;;;;;;9.98;5.55;;;16.80;1.00;;;;;;5054154;28;20040;-35